sensor_id;sensor_type;location;lat;lon;timestamp;P1;durP1;ratioP1;P2;durP2;ratioP2
81508;SDS011;70930;52.412;13.554;2024-02-26T00:00:06;8.05;;;5.88;;
81508;SDS011;70930;52.412;13.554;2024-02-26T00:02:35;10.25;;;6.93;;
81508;SDS011;70930;52.412;13.554;2024-02-26T00:05:04;10.85;;;7.93;;
81508;SDS011;70930;52.412;13.554;2024-02-26T00:07:31;14.02;;;8.80;;
81508;SDS011;70930;52.412;13.554;2024-02-26T00:09:56;14.65;;;9.48;;
81508;SDS011;70930;52.412;13.554;2024-02-26T00:12:22;8.77;;;6.20;;
81508;SDS011;70930;52.412;13.554;2024-02-26T00:14:47;8.88;;;6.00;;
81508;SDS011;70930;52.412;13.554;2024-02-26T00:17:14;11.70;;;7.10;;
81508;SDS011;70930;52.412;13.554;2024-02-26T00:19:40;10.52;;;8.30;;
81508;SDS011;70930;52.412;13.554;2024-02-26T00:22:05;9.45;;;6.20;;
81508;SDS011;70930;52.412;13.554;2024-02-26T00:24:31;9.93;;;7.28;;
81508;SDS011;70930;52.412;13.554;2024-02-26T00:26:56;9.70;;;5.93;;
81508;SDS011;70930;52.412;13.554;2024-02-26T00:29:21;12.25;;;8.48;;
81508;SDS011;70930;52.412;13.554;2024-02-26T00:31:47;9.05;;;6.63;;
81508;SDS011;70930;52.412;13.554;2024-02-26T00:34:13;8.35;;;5.85;;
81508;SDS011;70930;52.412;13.554;2024-02-26T00:36:38;11.45;;;7.63;;
81508;SDS011;70930;52.412;13.554;2024-02-26T00:39:04;10.90;;;7.07;;
81508;SDS011;70930;52.412;13.554;2024-02-26T00:41:29;9.52;;;6.95;;
81508;SDS011;70930;52.412;13.554;2024-02-26T00:43:54;13.10;;;7.80;;
81508;SDS011;70930;52.412;13.554;2024-02-26T00:46:20;12.52;;;6.15;;
81508;SDS011;70930;52.412;13.554;2024-02-26T00:48:45;9.52;;;6.30;;
81508;SDS011;70930;52.412;13.554;2024-02-26T00:51:11;9.05;;;6.47;;
81508;SDS011;70930;52.412;13.554;2024-02-26T00:53:36;7.93;;;5.50;;
81508;SDS011;70930;52.412;13.554;2024-02-26T00:56:01;6.50;;;4.78;;
81508;SDS011;70930;52.412;13.554;2024-02-26T00:58:27;8.30;;;5.57;;
81508;SDS011;70930;52.412;13.554;2024-02-26T01:00:52;8.25;;;5.20;;
81508;SDS011;70930;52.412;13.554;2024-02-26T01:03:18;10.00;;;6.47;;
81508;SDS011;70930;52.412;13.554;2024-02-26T01:05:44;10.98;;;6.22;;
81508;SDS011;70930;52.412;13.554;2024-02-26T01:08:10;8.45;;;5.65;;
81508;SDS011;70930;52.412;13.554;2024-02-26T01:10:35;6.72;;;4.97;;
81508;SDS011;70930;52.412;13.554;2024-02-26T01:13:01;8.98;;;4.65;;
81508;SDS011;70930;52.412;13.554;2024-02-26T01:15:27;7.25;;;4.95;;
81508;SDS011;70930;52.412;13.554;2024-02-26T01:17:52;7.10;;;4.53;;
81508;SDS011;70930;52.412;13.554;2024-02-26T01:20:17;7.28;;;4.90;;
81508;SDS011;70930;52.412;13.554;2024-02-26T01:22:43;11.30;;;7.40;;
81508;SDS011;70930;52.412;13.554;2024-02-26T01:25:09;8.15;;;5.47;;
81508;SDS011;70930;52.412;13.554;2024-02-26T01:27:35;11.52;;;7.43;;
81508;SDS011;70930;52.412;13.554;2024-02-26T01:30:02;8.07;;;5.95;;
81508;SDS011;70930;52.412;13.554;2024-02-26T01:32:31;8.00;;;5.65;;
81508;SDS011;70930;52.412;13.554;2024-02-26T01:34:56;8.55;;;6.00;;
81508;SDS011;70930;52.412;13.554;2024-02-26T01:37:22;9.23;;;6.03;;
81508;SDS011;70930;52.412;13.554;2024-02-26T01:39:47;9.95;;;7.03;;
81508;SDS011;70930;52.412;13.554;2024-02-26T01:42:13;9.55;;;5.70;;
81508;SDS011;70930;52.412;13.554;2024-02-26T01:44:38;7.95;;;5.50;;
81508;SDS011;70930;52.412;13.554;2024-02-26T01:47:04;10.27;;;5.90;;
81508;SDS011;70930;52.412;13.554;2024-02-26T01:49:33;9.57;;;5.90;;
81508;SDS011;70930;52.412;13.554;2024-02-26T01:52:00;8.77;;;6.65;;
81508;SDS011;70930;52.412;13.554;2024-02-26T01:54:27;9.35;;;5.72;;
81508;SDS011;70930;52.412;13.554;2024-02-26T01:56:54;12.82;;;8.18;;
81508;SDS011;70930;52.412;13.554;2024-02-26T01:59:20;7.97;;;4.82;;
81508;SDS011;70930;52.412;13.554;2024-02-26T02:01:46;10.40;;;6.57;;
81508;SDS011;70930;52.412;13.554;2024-02-26T02:04:17;8.52;;;5.50;;
81508;SDS011;70930;52.412;13.554;2024-02-26T02:06:43;9.35;;;5.88;;
81508;SDS011;70930;52.412;13.554;2024-02-26T02:09:11;6.97;;;5.25;;
81508;SDS011;70930;52.412;13.554;2024-02-26T02:11:36;7.88;;;5.40;;
81508;SDS011;70930;52.412;13.554;2024-02-26T02:14:02;9.50;;;6.22;;
81508;SDS011;70930;52.412;13.554;2024-02-26T02:16:28;7.72;;;5.20;;
81508;SDS011;70930;52.412;13.554;2024-02-26T02:18:54;8.00;;;5.65;;
81508;SDS011;70930;52.412;13.554;2024-02-26T02:21:19;8.85;;;5.35;;
81508;SDS011;70930;52.412;13.554;2024-02-26T02:23:44;16.15;;;7.45;;
81508;SDS011;70930;52.412;13.554;2024-02-26T02:26:11;10.45;;;5.93;;
81508;SDS011;70930;52.412;13.554;2024-02-26T02:28:38;15.23;;;8.02;;
81508;SDS011;70930;52.412;13.554;2024-02-26T02:31:04;10.98;;;6.30;;
81508;SDS011;70930;52.412;13.554;2024-02-26T02:33:30;9.93;;;5.95;;
81508;SDS011;70930;52.412;13.554;2024-02-26T02:35:56;14.18;;;7.70;;
81508;SDS011;70930;52.412;13.554;2024-02-26T02:38:23;10.07;;;6.47;;
81508;SDS011;70930;52.412;13.554;2024-02-26T02:40:49;8.48;;;5.38;;
81508;SDS011;70930;52.412;13.554;2024-02-26T02:43:14;9.52;;;5.32;;
81508;SDS011;70930;52.412;13.554;2024-02-26T02:45:39;6.18;;;4.22;;
81508;SDS011;70930;52.412;13.554;2024-02-26T02:48:05;6.50;;;4.13;;
81508;SDS011;70930;52.412;13.554;2024-02-26T02:50:30;8.20;;;4.45;;
81508;SDS011;70930;52.412;13.554;2024-02-26T02:52:55;5.65;;;4.25;;
81508;SDS011;70930;52.412;13.554;2024-02-26T02:55:21;9.57;;;5.72;;
81508;SDS011;70930;52.412;13.554;2024-02-26T02:57:46;9.13;;;5.70;;
81508;SDS011;70930;52.412;13.554;2024-02-26T03:00:12;10.55;;;6.43;;
81508;SDS011;70930;52.412;13.554;2024-02-26T03:02:37;11.93;;;7.38;;
81508;SDS011;70930;52.412;13.554;2024-02-26T03:05:03;8.82;;;5.40;;
81508;SDS011;70930;52.412;13.554;2024-02-26T03:07:29;7.93;;;4.90;;
81508;SDS011;70930;52.412;13.554;2024-02-26T03:09:55;8.80;;;4.82;;
81508;SDS011;70930;52.412;13.554;2024-02-26T03:12:20;6.15;;;4.70;;
81508;SDS011;70930;52.412;13.554;2024-02-26T03:14:46;6.72;;;4.25;;
81508;SDS011;70930;52.412;13.554;2024-02-26T03:17:11;10.75;;;5.47;;
81508;SDS011;70930;52.412;13.554;2024-02-26T03:19:36;6.10;;;4.75;;
81508;SDS011;70930;52.412;13.554;2024-02-26T03:22:02;11.32;;;6.10;;
81508;SDS011;70930;52.412;13.554;2024-02-26T03:24:27;7.15;;;4.57;;
81508;SDS011;70930;52.412;13.554;2024-02-26T03:26:53;7.18;;;4.53;;
81508;SDS011;70930;52.412;13.554;2024-02-26T03:29:18;8.93;;;4.60;;
81508;SDS011;70930;52.412;13.554;2024-02-26T03:31:44;8.63;;;5.15;;
81508;SDS011;70930;52.412;13.554;2024-02-26T03:34:09;9.55;;;4.70;;
81508;SDS011;70930;52.412;13.554;2024-02-26T03:36:36;12.63;;;6.60;;
81508;SDS011;70930;52.412;13.554;2024-02-26T03:39:02;7.35;;;4.78;;
81508;SDS011;70930;52.412;13.554;2024-02-26T03:41:32;8.15;;;4.95;;
81508;SDS011;70930;52.412;13.554;2024-02-26T03:43:58;9.60;;;5.55;;
81508;SDS011;70930;52.412;13.554;2024-02-26T03:46:23;6.22;;;4.22;;
81508;SDS011;70930;52.412;13.554;2024-02-26T03:48:49;8.52;;;5.45;;
81508;SDS011;70930;52.412;13.554;2024-02-26T03:51:14;10.52;;;6.15;;
81508;SDS011;70930;52.412;13.554;2024-02-26T03:53:39;9.48;;;5.47;;
81508;SDS011;70930;52.412;13.554;2024-02-26T03:56:05;10.25;;;6.22;;
81508;SDS011;70930;52.412;13.554;2024-02-26T03:58:31;13.73;;;7.30;;
81508;SDS011;70930;52.412;13.554;2024-02-26T04:00:57;9.38;;;5.40;;
81508;SDS011;70930;52.412;13.554;2024-02-26T04:03:22;11.63;;;7.07;;
81508;SDS011;70930;52.412;13.554;2024-02-26T04:05:47;10.10;;;5.93;;
81508;SDS011;70930;52.412;13.554;2024-02-26T04:08:13;9.88;;;6.13;;
81508;SDS011;70930;52.412;13.554;2024-02-26T04:10:38;8.70;;;4.93;;
81508;SDS011;70930;52.412;13.554;2024-02-26T04:13:04;8.43;;;5.65;;
81508;SDS011;70930;52.412;13.554;2024-02-26T04:15:30;9.85;;;6.43;;
81508;SDS011;70930;52.412;13.554;2024-02-26T04:17:56;8.18;;;5.65;;
81508;SDS011;70930;52.412;13.554;2024-02-26T04:20:22;11.73;;;7.30;;
81508;SDS011;70930;52.412;13.554;2024-02-26T04:22:47;9.02;;;5.40;;
81508;SDS011;70930;52.412;13.554;2024-02-26T04:25:12;7.20;;;4.68;;
81508;SDS011;70930;52.412;13.554;2024-02-26T04:27:38;7.82;;;5.13;;
81508;SDS011;70930;52.412;13.554;2024-02-26T04:30:05;8.45;;;5.85;;
81508;SDS011;70930;52.412;13.554;2024-02-26T04:32:31;8.07;;;5.32;;
81508;SDS011;70930;52.412;13.554;2024-02-26T04:34:56;7.60;;;5.15;;
81508;SDS011;70930;52.412;13.554;2024-02-26T04:37:22;10.82;;;7.00;;
81508;SDS011;70930;52.412;13.554;2024-02-26T04:39:47;10.13;;;6.55;;
81508;SDS011;70930;52.412;13.554;2024-02-26T04:42:13;13.68;;;7.13;;
81508;SDS011;70930;52.412;13.554;2024-02-26T04:44:39;14.63;;;8.10;;
81508;SDS011;70930;52.412;13.554;2024-02-26T04:47:04;11.15;;;6.63;;
81508;SDS011;70930;52.412;13.554;2024-02-26T04:49:30;10.07;;;6.15;;
81508;SDS011;70930;52.412;13.554;2024-02-26T04:51:55;8.38;;;5.50;;
81508;SDS011;70930;52.412;13.554;2024-02-26T04:54:20;13.23;;;7.65;;
81508;SDS011;70930;52.412;13.554;2024-02-26T04:56:46;13.10;;;7.43;;
81508;SDS011;70930;52.412;13.554;2024-02-26T04:59:13;13.10;;;7.10;;
81508;SDS011;70930;52.412;13.554;2024-02-26T05:01:39;8.88;;;5.68;;
81508;SDS011;70930;52.412;13.554;2024-02-26T05:04:04;7.75;;;5.22;;
81508;SDS011;70930;52.412;13.554;2024-02-26T05:06:29;11.38;;;7.18;;
81508;SDS011;70930;52.412;13.554;2024-02-26T05:08:55;8.05;;;5.45;;
81508;SDS011;70930;52.412;13.554;2024-02-26T05:11:20;13.00;;;7.68;;
81508;SDS011;70930;52.412;13.554;2024-02-26T05:13:47;9.30;;;5.60;;
81508;SDS011;70930;52.412;13.554;2024-02-26T05:16:13;13.18;;;7.63;;
81508;SDS011;70930;52.412;13.554;2024-02-26T05:18:38;13.27;;;7.45;;
81508;SDS011;70930;52.412;13.554;2024-02-26T05:21:03;13.48;;;7.47;;
81508;SDS011;70930;52.412;13.554;2024-02-26T05:23:29;17.98;;;9.15;;
81508;SDS011;70930;52.412;13.554;2024-02-26T05:25:55;12.95;;;7.75;;
81508;SDS011;70930;52.412;13.554;2024-02-26T05:28:20;16.65;;;8.38;;
81508;SDS011;70930;52.412;13.554;2024-02-26T05:30:46;12.27;;;7.53;;
81508;SDS011;70930;52.412;13.554;2024-02-26T05:33:11;16.85;;;8.75;;
81508;SDS011;70930;52.412;13.554;2024-02-26T05:35:37;13.05;;;8.20;;
81508;SDS011;70930;52.412;13.554;2024-02-26T05:38:03;12.35;;;7.65;;
81508;SDS011;70930;52.412;13.554;2024-02-26T05:40:28;11.02;;;7.43;;
81508;SDS011;70930;52.412;13.554;2024-02-26T05:42:55;13.80;;;8.40;;
81508;SDS011;70930;52.412;13.554;2024-02-26T05:45:20;16.80;;;8.73;;
81508;SDS011;70930;52.412;13.554;2024-02-26T05:47:46;15.85;;;7.18;;
81508;SDS011;70930;52.412;13.554;2024-02-26T05:50:12;15.05;;;8.45;;
81508;SDS011;70930;52.412;13.554;2024-02-26T05:52:38;14.50;;;8.05;;
81508;SDS011;70930;52.412;13.554;2024-02-26T05:55:04;13.98;;;8.32;;
81508;SDS011;70930;52.412;13.554;2024-02-26T05:57:29;14.30;;;7.70;;
81508;SDS011;70930;52.412;13.554;2024-02-26T05:59:55;10.73;;;7.10;;
81508;SDS011;70930;52.412;13.554;2024-02-26T06:02:20;14.20;;;7.90;;
81508;SDS011;70930;52.412;13.554;2024-02-26T06:04:46;13.02;;;7.82;;
81508;SDS011;70930;52.412;13.554;2024-02-26T06:07:12;11.07;;;7.38;;
81508;SDS011;70930;52.412;13.554;2024-02-26T06:09:37;19.85;;;11.02;;
81508;SDS011;70930;52.412;13.554;2024-02-26T06:12:03;21.17;;;10.43;;
81508;SDS011;70930;52.412;13.554;2024-02-26T06:14:28;13.85;;;7.97;;
81508;SDS011;70930;52.412;13.554;2024-02-26T06:16:53;12.82;;;7.72;;
81508;SDS011;70930;52.412;13.554;2024-02-26T06:19:19;15.18;;;8.82;;
81508;SDS011;70930;52.412;13.554;2024-02-26T06:21:44;13.00;;;7.90;;
81508;SDS011;70930;52.412;13.554;2024-02-26T06:24:09;13.30;;;8.50;;
81508;SDS011;70930;52.412;13.554;2024-02-26T06:26:35;18.00;;;9.73;;
81508;SDS011;70930;52.412;13.554;2024-02-26T06:29:00;15.13;;;9.80;;
81508;SDS011;70930;52.412;13.554;2024-02-26T06:31:26;12.95;;;7.93;;
81508;SDS011;70930;52.412;13.554;2024-02-26T06:33:52;14.60;;;9.07;;
81508;SDS011;70930;52.412;13.554;2024-02-26T06:36:18;17.00;;;9.00;;
81508;SDS011;70930;52.412;13.554;2024-02-26T06:38:44;16.15;;;9.32;;
81508;SDS011;70930;52.412;13.554;2024-02-26T06:41:09;18.42;;;9.93;;
81508;SDS011;70930;52.412;13.554;2024-02-26T06:43:35;16.67;;;9.93;;
81508;SDS011;70930;52.412;13.554;2024-02-26T06:46:00;15.85;;;10.25;;
81508;SDS011;70930;52.412;13.554;2024-02-26T06:48:25;16.85;;;10.43;;
81508;SDS011;70930;52.412;13.554;2024-02-26T06:50:51;13.85;;;8.45;;
81508;SDS011;70930;52.412;13.554;2024-02-26T06:53:16;14.57;;;8.88;;
81508;SDS011;70930;52.412;13.554;2024-02-26T06:55:42;15.60;;;9.68;;
81508;SDS011;70930;52.412;13.554;2024-02-26T06:58:08;14.45;;;9.23;;
81508;SDS011;70930;52.412;13.554;2024-02-26T07:00:34;15.00;;;8.65;;
81508;SDS011;70930;52.412;13.554;2024-02-26T07:02:59;19.30;;;10.40;;
81508;SDS011;70930;52.412;13.554;2024-02-26T07:05:25;16.40;;;9.65;;
81508;SDS011;70930;52.412;13.554;2024-02-26T07:07:51;13.18;;;8.68;;
81508;SDS011;70930;52.412;13.554;2024-02-26T07:10:18;12.63;;;7.90;;
81508;SDS011;70930;52.412;13.554;2024-02-26T07:12:43;11.70;;;7.72;;
81508;SDS011;70930;52.412;13.554;2024-02-26T07:15:09;13.85;;;8.48;;
81508;SDS011;70930;52.412;13.554;2024-02-26T07:17:35;12.63;;;8.18;;
81508;SDS011;70930;52.412;13.554;2024-02-26T07:20:01;13.68;;;8.82;;
81508;SDS011;70930;52.412;13.554;2024-02-26T07:22:29;12.90;;;7.68;;
81508;SDS011;70930;52.412;13.554;2024-02-26T07:24:55;16.55;;;9.55;;
81508;SDS011;70930;52.412;13.554;2024-02-26T07:27:20;14.55;;;8.70;;
81508;SDS011;70930;52.412;13.554;2024-02-26T07:29:46;16.40;;;8.80;;
81508;SDS011;70930;52.412;13.554;2024-02-26T07:32:11;14.20;;;8.68;;
81508;SDS011;70930;52.412;13.554;2024-02-26T07:34:37;14.48;;;8.40;;
81508;SDS011;70930;52.412;13.554;2024-02-26T07:39:31;15.05;;;8.70;;
81508;SDS011;70930;52.412;13.554;2024-02-26T07:41:57;15.65;;;9.45;;
81508;SDS011;70930;52.412;13.554;2024-02-26T07:44:22;17.48;;;10.50;;
81508;SDS011;70930;52.412;13.554;2024-02-26T07:46:48;18.30;;;9.98;;
81508;SDS011;70930;52.412;13.554;2024-02-26T07:49:13;14.75;;;9.98;;
81508;SDS011;70930;52.412;13.554;2024-02-26T07:51:38;15.70;;;8.82;;
81508;SDS011;70930;52.412;13.554;2024-02-26T07:54:04;16.58;;;9.77;;
81508;SDS011;70930;52.412;13.554;2024-02-26T07:56:29;17.02;;;10.95;;
81508;SDS011;70930;52.412;13.554;2024-02-26T07:58:54;19.67;;;10.45;;
81508;SDS011;70930;52.412;13.554;2024-02-26T08:01:20;18.65;;;10.27;;
81508;SDS011;70930;52.412;13.554;2024-02-26T08:03:45;16.77;;;9.80;;
81508;SDS011;70930;52.412;13.554;2024-02-26T08:06:11;16.85;;;9.25;;
81508;SDS011;70930;52.412;13.554;2024-02-26T08:08:36;15.25;;;9.95;;
81508;SDS011;70930;52.412;13.554;2024-02-26T08:11:01;17.75;;;10.57;;
81508;SDS011;70930;52.412;13.554;2024-02-26T08:13:27;17.85;;;10.43;;
81508;SDS011;70930;52.412;13.554;2024-02-26T08:15:52;19.85;;;11.63;;
81508;SDS011;70930;52.412;13.554;2024-02-26T08:18:18;16.80;;;9.93;;
81508;SDS011;70930;52.412;13.554;2024-02-26T08:20:44;18.60;;;11.65;;
81508;SDS011;70930;52.412;13.554;2024-02-26T08:23:09;20.50;;;11.70;;
81508;SDS011;70930;52.412;13.554;2024-02-26T08:25:35;19.67;;;10.93;;
81508;SDS011;70930;52.412;13.554;2024-02-26T08:28:00;20.98;;;12.27;;
81508;SDS011;70930;52.412;13.554;2024-02-26T08:30:26;18.27;;;10.70;;
81508;SDS011;70930;52.412;13.554;2024-02-26T08:32:51;17.25;;;11.38;;
81508;SDS011;70930;52.412;13.554;2024-02-26T08:35:17;16.95;;;10.95;;
81508;SDS011;70930;52.412;13.554;2024-02-26T08:37:46;17.70;;;11.30;;
81508;SDS011;70930;52.412;13.554;2024-02-26T08:42:37;17.02;;;9.38;;
81508;SDS011;70930;52.412;13.554;2024-02-26T08:45:03;16.75;;;10.40;;
81508;SDS011;70930;52.412;13.554;2024-02-26T08:47:28;16.73;;;10.68;;
81508;SDS011;70930;52.412;13.554;2024-02-26T08:49:54;21.58;;;11.70;;
81508;SDS011;70930;52.412;13.554;2024-02-26T08:52:19;19.45;;;13.05;;
81508;SDS011;70930;52.412;13.554;2024-02-26T08:54:46;18.70;;;11.60;;
81508;SDS011;70930;52.412;13.554;2024-02-26T08:57:12;21.83;;;12.60;;
81508;SDS011;70930;52.412;13.554;2024-02-26T08:59:37;14.75;;;9.57;;
81508;SDS011;70930;52.412;13.554;2024-02-26T09:02:03;19.55;;;10.88;;
81508;SDS011;70930;52.412;13.554;2024-02-26T09:04:28;20.13;;;11.02;;
81508;SDS011;70930;52.412;13.554;2024-02-26T09:06:53;16.88;;;11.27;;
81508;SDS011;70930;52.412;13.554;2024-02-26T09:09:19;17.73;;;8.63;;
81508;SDS011;70930;52.412;13.554;2024-02-26T09:11:45;18.83;;;11.68;;
81508;SDS011;70930;52.412;13.554;2024-02-26T09:14:10;21.90;;;12.13;;
81508;SDS011;70930;52.412;13.554;2024-02-26T09:16:37;22.90;;;13.20;;
81508;SDS011;70930;52.412;13.554;2024-02-26T09:19:02;23.15;;;12.57;;
81508;SDS011;70930;52.412;13.554;2024-02-26T09:21:28;22.65;;;12.60;;
81508;SDS011;70930;52.412;13.554;2024-02-26T09:23:53;22.20;;;12.38;;
81508;SDS011;70930;52.412;13.554;2024-02-26T09:26:19;21.10;;;11.95;;
81508;SDS011;70930;52.412;13.554;2024-02-26T09:28:44;15.18;;;10.25;;
81508;SDS011;70930;52.412;13.554;2024-02-26T09:31:10;24.42;;;12.70;;
81508;SDS011;70930;52.412;13.554;2024-02-26T09:33:35;20.55;;;11.30;;
81508;SDS011;70930;52.412;13.554;2024-02-26T09:36:01;21.15;;;11.82;;
81508;SDS011;70930;52.412;13.554;2024-02-26T09:38:27;19.30;;;11.65;;
81508;SDS011;70930;52.412;13.554;2024-02-26T09:40:53;18.73;;;10.32;;
81508;SDS011;70930;52.412;13.554;2024-02-26T09:43:21;18.23;;;10.38;;
81508;SDS011;70930;52.412;13.554;2024-02-26T09:45:49;23.58;;;12.32;;
81508;SDS011;70930;52.412;13.554;2024-02-26T09:48:15;21.10;;;10.82;;
81508;SDS011;70930;52.412;13.554;2024-02-26T09:50:42;19.52;;;11.70;;
81508;SDS011;70930;52.412;13.554;2024-02-26T09:53:09;19.13;;;9.57;;
81508;SDS011;70930;52.412;13.554;2024-02-26T09:55:36;17.90;;;9.85;;
81508;SDS011;70930;52.412;13.554;2024-02-26T09:58:01;17.77;;;9.73;;
81508;SDS011;70930;52.412;13.554;2024-02-26T10:00:30;18.98;;;10.98;;
81508;SDS011;70930;52.412;13.554;2024-02-26T10:03:01;15.98;;;10.25;;
81508;SDS011;70930;52.412;13.554;2024-02-26T10:05:29;17.77;;;10.50;;
81508;SDS011;70930;52.412;13.554;2024-02-26T10:07:56;17.40;;;10.07;;
81508;SDS011;70930;52.412;13.554;2024-02-26T10:10:22;16.23;;;10.25;;
81508;SDS011;70930;52.412;13.554;2024-02-26T10:12:48;16.77;;;10.75;;
81508;SDS011;70930;52.412;13.554;2024-02-26T10:15:13;13.30;;;8.75;;
81508;SDS011;70930;52.412;13.554;2024-02-26T10:17:39;14.77;;;9.75;;
81508;SDS011;70930;52.412;13.554;2024-02-26T10:20:15;18.95;;;10.10;;
81508;SDS011;70930;52.412;13.554;2024-02-26T10:22:42;13.07;;;7.60;;
81508;SDS011;70930;52.412;13.554;2024-02-26T10:25:08;14.25;;;8.82;;
81508;SDS011;70930;52.412;13.554;2024-02-26T10:27:34;13.65;;;7.63;;
81508;SDS011;70930;52.412;13.554;2024-02-26T10:30:03;13.50;;;8.32;;
81508;SDS011;70930;52.412;13.554;2024-02-26T10:32:30;11.77;;;7.90;;
81508;SDS011;70930;52.412;13.554;2024-02-26T10:34:56;13.27;;;8.18;;
81508;SDS011;70930;52.412;13.554;2024-02-26T10:37:22;12.07;;;6.95;;
81508;SDS011;70930;52.412;13.554;2024-02-26T10:39:47;16.27;;;8.32;;
81508;SDS011;70930;52.412;13.554;2024-02-26T10:42:13;12.48;;;7.47;;
81508;SDS011;70930;52.412;13.554;2024-02-26T10:44:40;10.02;;;7.50;;
81508;SDS011;70930;52.412;13.554;2024-02-26T10:47:07;9.43;;;6.65;;
81508;SDS011;70930;52.412;13.554;2024-02-26T10:49:33;10.93;;;7.15;;
81508;SDS011;70930;52.412;13.554;2024-02-26T10:52:00;11.35;;;7.80;;
81508;SDS011;70930;52.412;13.554;2024-02-26T10:54:29;11.18;;;7.65;;
81508;SDS011;70930;52.412;13.554;2024-02-26T10:56:55;12.48;;;7.10;;
81508;SDS011;70930;52.412;13.554;2024-02-26T10:59:22;9.75;;;6.78;;
81508;SDS011;70930;52.412;13.554;2024-02-26T11:01:48;12.32;;;7.53;;
81508;SDS011;70930;52.412;13.554;2024-02-26T11:04:15;10.13;;;6.00;;
81508;SDS011;70930;52.412;13.554;2024-02-26T11:06:41;12.93;;;6.95;;
81508;SDS011;70930;52.412;13.554;2024-02-26T11:09:08;9.73;;;6.45;;
81508;SDS011;70930;52.412;13.554;2024-02-26T11:11:38;13.82;;;6.63;;
81508;SDS011;70930;52.412;13.554;2024-02-26T11:14:05;9.75;;;5.38;;
81508;SDS011;70930;52.412;13.554;2024-02-26T11:16:33;9.30;;;5.40;;
81508;SDS011;70930;52.412;13.554;2024-02-26T11:19:00;6.57;;;4.93;;
81508;SDS011;70930;52.412;13.554;2024-02-26T11:21:27;10.13;;;5.93;;
81508;SDS011;70930;52.412;13.554;2024-02-26T11:24:03;9.75;;;5.68;;
81508;SDS011;70930;52.412;13.554;2024-02-26T11:26:44;9.80;;;5.90;;
81508;SDS011;70930;52.412;13.554;2024-02-26T11:29:13;8.00;;;5.28;;
81508;SDS011;70930;52.412;13.554;2024-02-26T11:31:42;7.30;;;4.78;;
81508;SDS011;70930;52.412;13.554;2024-02-26T11:34:08;8.52;;;5.30;;
81508;SDS011;70930;52.412;13.554;2024-02-26T11:36:34;10.10;;;5.22;;
81508;SDS011;70930;52.412;13.554;2024-02-26T11:39:02;8.63;;;5.25;;
81508;SDS011;70930;52.412;13.554;2024-02-26T11:41:29;8.73;;;5.03;;
81508;SDS011;70930;52.412;13.554;2024-02-26T11:43:58;8.65;;;4.90;;
81508;SDS011;70930;52.412;13.554;2024-02-26T11:46:31;11.73;;;5.57;;
81508;SDS011;70930;52.412;13.554;2024-02-26T11:49:01;8.77;;;5.10;;
81508;SDS011;70930;52.412;13.554;2024-02-26T11:51:50;10.02;;;5.10;;
81508;SDS011;70930;52.412;13.554;2024-02-26T11:54:37;8.00;;;4.70;;
81508;SDS011;70930;52.412;13.554;2024-02-26T11:59:47;7.53;;;4.90;;
81508;SDS011;70930;52.412;13.554;2024-02-26T12:02:37;8.75;;;4.90;;
81508;SDS011;70930;52.412;13.554;2024-02-26T12:05:11;7.80;;;5.22;;
81508;SDS011;70930;52.412;13.554;2024-02-26T12:07:54;7.30;;;4.50;;
81508;SDS011;70930;52.412;13.554;2024-02-26T12:12:54;8.35;;;5.47;;
81508;SDS011;70930;52.412;13.554;2024-02-26T12:15:37;8.07;;;4.88;;
81508;SDS011;70930;52.412;13.554;2024-02-26T12:18:06;9.18;;;5.13;;
81508;SDS011;70930;52.412;13.554;2024-02-26T12:20:33;9.73;;;5.40;;
81508;SDS011;70930;52.412;13.554;2024-02-26T12:22:59;9.82;;;5.28;;
81508;SDS011;70930;52.412;13.554;2024-02-26T12:25:28;8.73;;;4.85;;
81508;SDS011;70930;52.412;13.554;2024-02-26T12:27:54;7.47;;;4.53;;
81508;SDS011;70930;52.412;13.554;2024-02-26T12:30:20;10.65;;;4.95;;
81508;SDS011;70930;52.412;13.554;2024-02-26T12:32:50;8.10;;;4.90;;
81508;SDS011;70930;52.412;13.554;2024-02-26T12:35:16;8.68;;;5.30;;
81508;SDS011;70930;52.412;13.554;2024-02-26T12:37:42;9.18;;;5.68;;
81508;SDS011;70930;52.412;13.554;2024-02-26T12:40:09;7.55;;;5.43;;
81508;SDS011;70930;52.412;13.554;2024-02-26T12:42:36;10.48;;;5.80;;
81508;SDS011;70930;52.412;13.554;2024-02-26T12:45:09;9.32;;;6.57;;
81508;SDS011;70930;52.412;13.554;2024-02-26T12:47:39;8.48;;;4.85;;
81508;SDS011;70930;52.412;13.554;2024-02-26T12:50:09;8.82;;;5.05;;
81508;SDS011;70930;52.412;13.554;2024-02-26T12:52:36;7.88;;;4.95;;
81508;SDS011;70930;52.412;13.554;2024-02-26T12:55:05;7.70;;;4.93;;
81508;SDS011;70930;52.412;13.554;2024-02-26T12:57:32;8.23;;;5.65;;
81508;SDS011;70930;52.412;13.554;2024-02-26T12:59:59;8.10;;;6.03;;
81508;SDS011;70930;52.412;13.554;2024-02-26T13:02:26;8.75;;;5.63;;
81508;SDS011;70930;52.412;13.554;2024-02-26T13:04:52;8.63;;;5.68;;
81508;SDS011;70930;52.412;13.554;2024-02-26T13:07:20;7.72;;;5.00;;
81508;SDS011;70930;52.412;13.554;2024-02-26T13:09:45;8.93;;;6.15;;
81508;SDS011;70930;52.412;13.554;2024-02-26T13:12:11;9.82;;;6.03;;
81508;SDS011;70930;52.412;13.554;2024-02-26T13:14:37;9.02;;;6.15;;
81508;SDS011;70930;52.412;13.554;2024-02-26T13:17:03;9.02;;;5.82;;
81508;SDS011;70930;52.412;13.554;2024-02-26T13:19:28;10.20;;;6.38;;
81508;SDS011;70930;52.412;13.554;2024-02-26T13:21:54;10.02;;;6.63;;
81508;SDS011;70930;52.412;13.554;2024-02-26T13:24:20;10.75;;;6.25;;
81508;SDS011;70930;52.412;13.554;2024-02-26T13:26:47;10.55;;;5.90;;
81508;SDS011;70930;52.412;13.554;2024-02-26T13:29:19;9.93;;;6.78;;
81508;SDS011;70930;52.412;13.554;2024-02-26T13:31:44;10.57;;;6.35;;
81508;SDS011;70930;52.412;13.554;2024-02-26T13:34:10;12.23;;;6.47;;
81508;SDS011;70930;52.412;13.554;2024-02-26T13:36:35;11.20;;;6.80;;
81508;SDS011;70930;52.412;13.554;2024-02-26T13:39:01;9.02;;;5.72;;
81508;SDS011;70930;52.412;13.554;2024-02-26T13:43:55;13.43;;;6.25;;
81508;SDS011;70930;52.412;13.554;2024-02-26T13:46:20;8.82;;;5.90;;
81508;SDS011;70930;52.412;13.554;2024-02-26T13:48:45;11.55;;;6.80;;
81508;SDS011;70930;52.412;13.554;2024-02-26T13:51:11;11.55;;;6.35;;
81508;SDS011;70930;52.412;13.554;2024-02-26T13:53:36;11.88;;;6.88;;
81508;SDS011;70930;52.412;13.554;2024-02-26T13:56:01;11.57;;;6.68;;
81508;SDS011;70930;52.412;13.554;2024-02-26T13:58:29;10.32;;;6.70;;
81508;SDS011;70930;52.412;13.554;2024-02-26T14:00:54;11.05;;;6.57;;
81508;SDS011;70930;52.412;13.554;2024-02-26T14:03:20;10.18;;;6.50;;
81508;SDS011;70930;52.412;13.554;2024-02-26T14:05:45;11.05;;;6.72;;
81508;SDS011;70930;52.412;13.554;2024-02-26T14:08:11;8.93;;;6.30;;
81508;SDS011;70930;52.412;13.554;2024-02-26T14:10:36;13.30;;;7.10;;
81508;SDS011;70930;52.412;13.554;2024-02-26T14:13:02;14.98;;;7.45;;
81508;SDS011;70930;52.412;13.554;2024-02-26T14:15:28;11.45;;;6.22;;
81508;SDS011;70930;52.412;13.554;2024-02-26T14:17:54;11.60;;;6.93;;
81508;SDS011;70930;52.412;13.554;2024-02-26T14:20:24;10.55;;;6.72;;
81508;SDS011;70930;52.412;13.554;2024-02-26T14:22:51;12.30;;;6.55;;
81508;SDS011;70930;52.412;13.554;2024-02-26T14:25:18;15.27;;;7.57;;
81508;SDS011;70930;52.412;13.554;2024-02-26T14:27:44;11.27;;;7.05;;
81508;SDS011;70930;52.412;13.554;2024-02-26T14:30:11;12.20;;;6.90;;